Athena, Oregon
Current Conditions -  °F | °C
As of 2:53 PM on Saturday 20 Dec 2014 (Local Time) from KPDT Reporting Station
Light Rain Light Rain  
Wind Chill: 45°   Ceiling: 4600
Heat Index: 47°   Visibility: 6mi
Dew Point: 41°   Wind: 5mph
Humidity: 80%   Direction: 210°SSW
Pressure: 29.71"   Gusts: NA
Location:  45.81°N, 118.49°W
Report Text: KPDT 202253Z 21004KT 6SM -RA OVC046 08/05 A2971 RMK AO2 SLP059 P0010 T00830050
Loading
Personal Weather Stations






























Interactive Weather Map New forecast layout! Learn more

10-Day Weather Forecast

Advertisements
Track Severe Weather on mobile